createdAt,value
2022-09-20T00:00:43.161Z,8.50
2022-09-20T00:01:43.128Z,10.10
2022-09-20T00:02:43.070Z,9.60
2022-09-20T00:03:43.061Z,11.00
2022-09-20T00:04:43.103Z,9.90
2022-09-20T00:05:43.045Z,12.80
2022-09-20T00:06:43.079Z,12.60
2022-09-20T00:07:43.034Z,12.20
2022-09-20T00:08:43.025Z,12.80
2022-09-20T00:09:43.045Z,12.40
2022-09-20T00:10:43.023Z,10.40
2022-09-20T00:11:43.006Z,11.80
2022-09-20T00:12:43.014Z,8.20
2022-09-20T00:13:42.990Z,12.40
2022-09-20T00:14:42.991Z,8.20
2022-09-20T00:15:43.007Z,8.70
2022-09-20T00:16:43.070Z,10.40
2022-09-20T00:17:42.988Z,9.40
2022-09-20T00:18:42.966Z,12.00
2022-09-20T00:19:42.960Z,8.70
2022-09-20T00:20:42.984Z,7.80
2022-09-20T00:21:42.942Z,9.80
2022-09-20T00:22:42.937Z,14.30
2022-09-20T00:23:43.125Z,13.80
2022-09-20T00:24:48.166Z,11.90
2022-09-20T00:25:45.002Z,10.20
2022-09-20T00:26:42.934Z,12.60
2022-09-20T00:27:42.954Z,10.90
2022-09-20T00:28:42.937Z,12.10
2022-09-20T00:29:42.994Z,14.20
2022-09-20T00:30:42.902Z,11.80
2022-09-20T00:31:43.211Z,12.90
2022-09-20T00:32:42.881Z,10.10
2022-09-20T00:33:42.920Z,8.60
2022-09-20T00:34:42.858Z,13.60
2022-09-20T00:35:42.893Z,9.90
2022-09-20T00:36:42.884Z,12.20
2022-09-20T00:37:42.830Z,11.00
2022-09-20T00:38:42.850Z,10.50
2022-09-20T00:39:42.818Z,11.90
2022-09-20T00:40:42.951Z,12.90
2022-09-20T00:41:42.822Z,9.80
2022-09-20T00:42:42.798Z,11.30
2022-09-20T00:43:42.827Z,16.60
2022-09-20T00:44:42.832Z,14.80
2022-09-20T00:45:42.828Z,12.20
2022-09-20T00:46:42.779Z,10.70
2022-09-20T00:47:42.850Z,14.00
2022-09-20T00:48:42.774Z,12.80
2022-09-20T00:49:43.758Z,11.30
2022-09-20T00:50:42.778Z,8.60
2022-09-20T00:51:42.762Z,12.20
2022-09-20T00:52:42.741Z,12.60
2022-09-20T00:53:42.745Z,11.00
2022-09-20T00:54:42.743Z,9.40
2022-09-20T00:55:42.718Z,10.00
2022-09-20T00:56:42.733Z,11.00
2022-09-20T00:57:42.746Z,8.30
2022-09-20T00:58:42.710Z,10.50
2022-09-20T00:59:42.692Z,12.10
2022-09-20T01:00:42.797Z,14.00
2022-09-20T01:01:42.731Z,11.80
2022-09-20T01:02:42.757Z,10.80
2022-09-20T01:03:42.753Z,11.80
2022-09-20T01:04:42.643Z,11.30
2022-09-20T01:05:42.656Z,14.10
2022-09-20T01:06:42.621Z,11.20
2022-09-20T01:07:42.613Z,11.00
2022-09-20T01:08:42.661Z,14.40
2022-09-20T01:09:42.615Z,14.10
2022-09-20T01:10:42.602Z,10.90
2022-09-20T01:11:42.593Z,11.50
2022-09-20T01:12:42.569Z,10.70
2022-09-20T01:13:42.597Z,11.80
2022-09-20T01:14:42.554Z,12.10
2022-09-20T01:15:42.578Z,9.40
2022-09-20T01:16:42.589Z,9.10
2022-09-20T01:17:42.558Z,16.10
2022-09-20T01:18:42.542Z,9.90
2022-09-20T01:19:42.534Z,11.20
2022-09-20T01:20:42.521Z,9.00
2022-09-20T01:21:42.514Z,10.70
2022-09-20T01:22:42.541Z,14.50
2022-09-20T01:23:42.509Z,10.70
2022-09-20T01:24:42.489Z,10.40
2022-09-20T01:25:42.494Z,8.60
2022-09-20T01:26:42.495Z,12.60
2022-09-20T01:27:42.494Z,9.40
2022-09-20T01:28:42.461Z,11.40
2022-09-20T01:29:42.499Z,9.90
2022-09-20T01:30:42.460Z,10.30
2022-09-20T01:31:42.500Z,13.10
2022-09-20T01:32:42.480Z,13.00
2022-09-20T01:33:42.449Z,14.30
2022-09-20T01:34:42.437Z,14.40
2022-09-20T01:35:42.433Z,12.00
2022-09-20T01:36:42.418Z,8.50
2022-09-20T01:37:42.425Z,11.40
2022-09-20T01:38:42.441Z,10.00
2022-09-20T01:39:42.401Z,11.60
2022-09-20T01:40:42.440Z,15.10
2022-09-20T01:41:42.388Z,12.10
2022-09-20T01:42:42.408Z,10.90
2022-09-20T01:43:42.374Z,11.90
2022-09-20T01:44:42.362Z,10.20
2022-09-20T01:45:42.452Z,12.10
2022-09-20T01:46:42.351Z,10.10
2022-09-20T01:47:42.363Z,11.20
2022-09-20T01:48:42.351Z,13.60
2022-09-20T01:49:42.343Z,11.40
2022-09-20T01:50:42.343Z,11.50
2022-09-20T01:51:42.323Z,12.70
2022-09-20T01:52:42.306Z,9.00
2022-09-20T01:53:42.307Z,11.60
2022-09-20T01:54:42.307Z,9.00
2022-09-20T01:55:42.287Z,8.40
2022-09-20T01:56:42.284Z,12.70
2022-09-20T01:57:42.281Z,9.50
2022-09-20T01:58:42.307Z,11.90
2022-09-20T01:59:42.263Z,12.60
2022-09-20T02:00:42.297Z,9.90
2022-09-20T02:01:42.241Z,16.00
2022-09-20T02:03:15.754Z,12.10
2022-09-20T02:03:42.248Z,9.50
2022-09-20T02:04:42.238Z,10.10
2022-09-20T02:05:42.253Z,11.20
2022-09-20T02:06:43.270Z,9.60
2022-09-20T02:07:42.235Z,11.30
2022-09-20T02:08:42.257Z,12.80
2022-09-20T02:09:42.193Z,12.30
2022-09-20T02:10:42.185Z,8.10
2022-09-20T02:11:42.191Z,13.20
2022-09-20T02:12:42.193Z,11.80
2022-09-20T02:13:42.189Z,10.50
2022-09-20T02:14:42.157Z,9.00
2022-09-20T02:15:42.166Z,8.50
2022-09-20T02:16:42.224Z,11.60
2022-09-20T02:17:42.150Z,13.60
2022-09-20T02:18:42.131Z,9.10
2022-09-20T02:19:42.155Z,13.50
2022-09-20T02:20:42.125Z,14.70
2022-09-20T02:21:42.117Z,8.90
2022-09-20T02:22:42.156Z,11.40
2022-09-20T02:23:42.107Z,14.00
2022-09-20T02:24:42.114Z,9.10
2022-09-20T02:25:42.102Z,9.50
2022-09-20T02:26:42.115Z,11.90
2022-09-20T02:27:42.151Z,14.40
2022-09-20T02:28:42.093Z,10.20
2022-09-20T02:29:42.069Z,10.70
2022-09-20T02:30:42.082Z,8.90
2022-09-20T02:31:42.128Z,11.40
2022-09-20T02:32:42.053Z,11.50
2022-09-20T02:33:42.093Z,16.20
2022-09-20T02:34:42.035Z,13.00
2022-09-20T02:35:42.040Z,10.80
2022-09-20T02:36:42.006Z,10.90
2022-09-20T02:37:42.006Z,16.30
2022-09-20T02:38:42.258Z,9.60
2022-09-20T02:39:42.742Z,13.00
2022-09-20T02:40:42.104Z,11.00
2022-09-20T02:41:41.993Z,14.50
2022-09-20T02:42:41.995Z,8.00
2022-09-20T02:43:41.998Z,11.70
2022-09-20T02:44:41.966Z,16.40
2022-09-20T02:45:42.058Z,12.20
2022-09-20T02:46:41.949Z,9.00
2022-09-20T02:47:41.938Z,10.00
2022-09-20T02:48:42.038Z,10.00
2022-09-20T02:49:41.951Z,13.20
2022-09-20T02:50:41.929Z,10.50
2022-09-20T02:51:41.957Z,9.70
2022-09-20T02:52:41.930Z,11.00
2022-09-20T02:53:42.062Z,11.00
2022-09-20T02:54:41.914Z,12.80
2022-09-20T02:55:41.926Z,11.80
2022-09-20T02:56:41.906Z,10.20
2022-09-20T02:57:41.880Z,14.50
2022-09-20T02:58:41.865Z,11.90
2022-09-20T02:59:41.894Z,12.20
2022-09-20T03:00:41.869Z,11.60
2022-09-20T03:01:41.937Z,9.80
2022-09-20T03:02:41.957Z,13.80
2022-09-20T03:03:41.828Z,10.10
2022-09-20T03:04:41.832Z,10.00
2022-09-20T03:05:41.842Z,9.80
2022-09-20T03:06:41.882Z,9.50
2022-09-20T03:07:41.834Z,12.60
2022-09-20T03:08:41.805Z,12.90
2022-09-20T03:09:41.810Z,10.30
2022-09-20T03:10:41.810Z,14.00
2022-09-20T03:11:41.835Z,12.90
2022-09-20T03:12:41.788Z,13.20
2022-09-20T03:13:41.878Z,13.10
2022-09-20T03:14:41.774Z,10.10
2022-09-20T03:15:41.793Z,9.40
2022-09-20T03:16:41.833Z,11.10
2022-09-20T03:17:41.742Z,12.50
2022-09-20T03:18:41.741Z,9.50
2022-09-20T03:19:41.774Z,11.50
2022-09-20T03:20:41.733Z,10.40
2022-09-20T03:21:41.789Z,10.10
2022-09-20T03:22:41.741Z,11.40
2022-09-20T03:23:41.713Z,9.80
2022-09-20T03:24:41.706Z,12.30
2022-09-20T03:25:41.705Z,8.30
2022-09-20T03:26:41.710Z,10.60
2022-09-20T03:27:41.682Z,9.40
2022-09-20T03:28:41.693Z,7.00
2022-09-20T03:29:41.674Z,10.20
2022-09-20T03:30:41.738Z,12.60
2022-09-20T03:31:41.818Z,9.40
2022-09-20T03:32:41.709Z,12.30
2022-09-20T03:33:41.717Z,12.30
2022-09-20T03:34:41.673Z,11.80
2022-09-20T03:35:41.660Z,12.40
2022-09-20T03:36:42.357Z,10.00
2022-09-20T03:37:41.609Z,8.60
2022-09-20T03:38:41.604Z,11.20
2022-09-20T03:39:41.637Z,12.60
2022-09-20T03:40:46.223Z,12.40
2022-09-20T03:41:43.721Z,9.70
2022-09-20T03:42:41.615Z,13.50
2022-09-20T03:43:41.627Z,11.60
2022-09-20T03:44:41.579Z,14.60
2022-09-20T03:45:41.662Z,10.10
2022-09-20T03:46:41.794Z,9.80
2022-09-20T03:47:41.592Z,13.90
2022-09-20T03:48:41.576Z,12.20
2022-09-20T03:49:41.564Z,8.90
2022-09-20T03:50:41.544Z,12.00
2022-09-20T03:51:41.578Z,12.20
2022-09-20T03:52:41.677Z,12.00
2022-09-20T03:53:41.649Z,14.10
2022-09-20T03:54:41.577Z,9.50
2022-09-20T03:55:41.549Z,10.10
2022-09-20T03:56:41.597Z,11.30
2022-09-20T03:57:41.625Z,10.10
2022-09-20T03:58:41.533Z,9.50
2022-09-20T03:59:41.598Z,8.90
2022-09-20T04:00:41.546Z,10.30
2022-09-20T04:01:41.525Z,9.10
2022-09-20T04:02:41.607Z,10.20
2022-09-20T04:03:41.563Z,12.50
2022-09-20T04:04:41.490Z,9.30
2022-09-20T04:05:41.530Z,10.30
2022-09-20T04:06:41.450Z,10.80
2022-09-20T04:07:41.447Z,9.50
2022-09-20T04:08:41.442Z,10.20
2022-09-20T04:09:41.428Z,10.40
2022-09-20T04:10:41.406Z,11.00
2022-09-20T04:11:41.403Z,10.70
2022-09-20T04:12:41.405Z,7.60
2022-09-20T04:13:41.423Z,10.50
2022-09-20T04:14:41.446Z,11.70
2022-09-20T04:15:41.387Z,11.90
2022-09-20T04:16:41.502Z,9.90
2022-09-20T04:17:41.392Z,11.00
2022-09-20T04:18:41.425Z,10.20
2022-09-20T04:19:41.351Z,12.50
2022-09-20T04:20:41.600Z,13.70
2022-09-20T04:21:41.441Z,7.90
2022-09-20T04:22:41.358Z,8.50
2022-09-20T04:23:41.343Z,11.40
2022-09-20T04:24:41.329Z,8.80
2022-09-20T04:25:44.058Z,7.80
2022-09-20T04:26:42.292Z,10.10
2022-09-20T04:27:41.313Z,8.20
2022-09-20T04:28:41.333Z,11.20
2022-09-20T04:29:41.328Z,12.30
2022-09-20T04:30:41.312Z,8.30
2022-09-20T04:31:41.543Z,10.90
2022-09-20T04:32:41.312Z,10.50
2022-09-20T04:33:41.331Z,8.00
2022-09-20T04:34:42.263Z,9.80
2022-09-20T04:35:41.308Z,16.50
2022-09-20T04:36:41.332Z,11.90
2022-09-20T04:37:41.224Z,11.80
2022-09-20T04:38:41.240Z,9.90
2022-09-20T04:39:41.237Z,11.80
2022-09-20T04:40:41.257Z,12.90
2022-09-20T04:41:41.262Z,8.20
2022-09-20T04:42:41.191Z,11.40
2022-09-20T04:43:41.182Z,8.40
2022-09-20T04:44:41.198Z,11.70
2022-09-20T04:45:41.244Z,13.30
2022-09-20T04:46:41.857Z,10.10
2022-09-20T04:47:41.163Z,10.10
2022-09-20T04:48:41.166Z,9.00
2022-09-20T04:49:41.169Z,9.10
2022-09-20T04:50:41.225Z,9.20
2022-09-20T04:51:41.169Z,10.10
2022-09-20T04:52:41.146Z,11.30
2022-09-20T04:53:41.742Z,11.30
2022-09-20T04:54:41.901Z,10.50
2022-09-20T04:55:41.139Z,12.10
2022-09-20T04:56:41.101Z,9.30
2022-09-20T04:57:41.165Z,9.20
2022-09-20T04:58:41.285Z,9.50
2022-09-20T04:59:41.208Z,10.40
2022-09-20T05:00:41.454Z,8.70
2022-09-20T05:01:41.200Z,13.10
2022-09-20T05:02:41.380Z,10.30
2022-09-20T05:03:41.171Z,10.00
2022-09-20T05:04:41.039Z,12.70
2022-09-20T05:05:41.039Z,15.60
2022-09-20T05:06:41.043Z,10.30
2022-09-20T05:07:41.068Z,11.80
2022-09-20T05:08:41.043Z,11.80
2022-09-20T05:09:41.011Z,11.70
2022-09-20T05:10:41.011Z,12.30
2022-09-20T05:11:41.047Z,10.50
2022-09-20T05:12:40.991Z,8.40
2022-09-20T05:13:40.979Z,11.50
2022-09-20T05:14:40.976Z,10.10
2022-09-20T05:15:40.978Z,13.90
2022-09-20T05:16:43.375Z,8.10
2022-09-20T05:17:40.947Z,10.60
2022-09-20T05:18:40.972Z,13.30
2022-09-20T05:19:40.931Z,10.40
2022-09-20T05:20:40.948Z,6.80
2022-09-20T05:21:40.931Z,11.60
2022-09-20T05:22:40.934Z,8.70
2022-09-20T05:23:41.959Z,11.80
2022-09-20T05:24:40.914Z,8.30
2022-09-20T05:25:40.914Z,14.00
2022-09-20T05:26:40.948Z,11.60
2022-09-20T05:27:40.900Z,8.40
2022-09-20T05:28:40.926Z,11.60
2022-09-20T05:29:41.871Z,10.80
2022-09-20T05:30:40.897Z,10.10
2022-09-20T05:31:40.906Z,12.40
2022-09-20T05:32:40.879Z,10.50
2022-09-20T05:33:40.890Z,9.60
2022-09-20T05:34:40.847Z,7.70
2022-09-20T05:35:40.839Z,11.20
2022-09-20T05:36:40.827Z,10.30
2022-09-20T05:37:40.836Z,7.70
2022-09-20T05:38:40.870Z,8.70
2022-09-20T05:39:40.818Z,9.00
2022-09-20T05:40:40.799Z,11.40
2022-09-20T05:41:40.823Z,11.70
2022-09-20T05:42:40.803Z,8.90
2022-09-20T05:43:40.783Z,10.00
2022-09-20T05:44:40.781Z,12.00
2022-09-20T05:45:40.807Z,9.30
2022-09-20T05:46:40.763Z,12.90
2022-09-20T05:47:40.786Z,11.50
2022-09-20T05:48:40.751Z,10.20
2022-09-20T05:49:40.739Z,8.10
2022-09-20T05:50:40.746Z,12.60
2022-09-20T05:51:40.730Z,9.00
2022-09-20T05:52:40.726Z,10.70
2022-09-20T05:53:40.734Z,10.00
2022-09-20T05:54:40.712Z,10.10
2022-09-20T05:55:40.718Z,14.80
2022-09-20T05:56:40.713Z,11.50
2022-09-20T05:57:40.707Z,12.80
2022-09-20T05:58:40.702Z,15.50
2022-09-20T05:59:40.690Z,55.00
2022-09-20T06:00:40.670Z,38.80
2022-09-20T06:01:40.687Z,52.00
2022-09-20T06:02:40.708Z,29.70
2022-09-20T06:03:40.682Z,27.60
2022-09-20T06:04:40.643Z,24.50
2022-09-20T06:05:40.635Z,38.10
2022-09-20T06:06:40.675Z,143.60
2022-09-20T06:07:40.616Z,177.40
2022-09-20T06:08:40.628Z,93.40
2022-09-20T06:09:40.602Z,108.30
2022-09-20T06:10:40.594Z,48.80
2022-09-20T06:11:42.131Z,18.60
2022-09-20T06:12:40.626Z,10.90
2022-09-20T06:13:40.611Z,32.20
2022-09-20T06:14:40.574Z,42.00
2022-09-20T06:15:40.562Z,28.90
2022-09-20T06:16:40.609Z,12.50
2022-09-20T06:17:40.546Z,36.90
2022-09-20T06:18:40.547Z,41.70
2022-09-20T06:19:40.559Z,41.00
2022-09-20T06:20:40.524Z,35.50
2022-09-20T06:21:40.519Z,38.30
2022-09-20T06:22:40.518Z,38.10
2022-09-20T06:23:40.559Z,41.30
2022-09-20T06:24:40.531Z,38.70
2022-09-20T06:25:40.503Z,17.00
2022-09-20T06:26:40.491Z,13.00
2022-09-20T06:27:40.486Z,10.30
2022-09-20T06:28:40.506Z,13.40
2022-09-20T06:29:40.557Z,11.20
2022-09-20T06:30:41.540Z,22.70
2022-09-20T06:31:40.476Z,18.30
2022-09-20T06:32:40.466Z,16.80
2022-09-20T06:33:40.611Z,14.00
2022-09-20T06:34:40.462Z,14.10
2022-09-20T06:35:40.447Z,12.20
2022-09-20T06:36:40.486Z,12.50
2022-09-20T06:37:40.422Z,12.30
2022-09-20T06:38:40.415Z,10.50
2022-09-20T06:39:40.510Z,8.50
2022-09-20T06:40:41.343Z,7.50
2022-09-20T06:41:40.403Z,12.40
2022-09-20T06:42:40.470Z,11.40
2022-09-20T06:43:40.397Z,9.30
2022-09-20T06:44:40.383Z,10.70
2022-09-20T06:45:40.551Z,12.30
2022-09-20T06:46:40.371Z,11.30
2022-09-20T06:47:40.360Z,9.30
2022-09-20T06:48:40.351Z,11.40
2022-09-20T06:49:40.380Z,10.20
2022-09-20T06:50:40.350Z,9.90
2022-09-20T06:51:40.342Z,9.80
2022-09-20T06:52:40.468Z,11.90
2022-09-20T06:53:40.331Z,12.30
2022-09-20T06:54:40.338Z,9.00
2022-09-20T06:55:40.330Z,9.10
2022-09-20T06:56:40.322Z,9.70
2022-09-20T06:57:40.286Z,12.30
2022-09-20T06:58:40.270Z,9.30
2022-09-20T06:59:40.319Z,13.20
2022-09-20T07:00:40.257Z,10.00
2022-09-20T07:01:40.332Z,11.20
2022-09-20T07:02:40.322Z,12.80
2022-09-20T07:03:40.250Z,7.40
2022-09-20T07:04:40.249Z,12.90
2022-09-20T07:05:40.231Z,11.70
2022-09-20T07:06:40.231Z,8.40
2022-09-20T07:07:41.302Z,10.20
2022-09-20T07:08:40.216Z,9.90
2022-09-20T07:09:40.203Z,10.30
2022-09-20T07:10:40.314Z,9.10
2022-09-20T07:11:40.206Z,9.60
2022-09-20T07:12:40.182Z,7.30
2022-09-20T07:13:40.274Z,11.10
2022-09-20T07:14:40.172Z,10.50
2022-09-20T07:15:40.163Z,7.50
2022-09-20T07:16:40.283Z,9.50
2022-09-20T07:17:40.247Z,12.30
2022-09-20T07:18:40.155Z,12.40
2022-09-20T07:19:40.135Z,10.00
2022-09-20T07:20:40.126Z,9.40
2022-09-20T07:21:40.126Z,13.20
2022-09-20T07:22:40.149Z,12.20
2022-09-20T07:23:40.118Z,9.80
2022-09-20T07:24:40.111Z,9.60
2022-09-20T07:25:40.090Z,9.30
2022-09-20T07:26:40.078Z,6.90
2022-09-20T07:27:40.107Z,10.50
2022-09-20T07:28:40.070Z,11.40
2022-09-20T07:29:40.098Z,9.20
2022-09-20T07:30:40.083Z,10.50
2022-09-20T07:31:40.094Z,10.10
2022-09-20T07:32:40.060Z,11.20
2022-09-20T07:33:40.066Z,10.30
2022-09-20T07:34:40.035Z,9.00
2022-09-20T07:35:40.027Z,12.20
2022-09-20T07:36:40.030Z,9.40
2022-09-20T07:37:40.027Z,10.80
2022-09-20T07:38:40.018Z,7.90
2022-09-20T07:39:40.050Z,8.60
2022-09-20T07:40:40.042Z,12.90
2022-09-20T07:41:39.982Z,12.40
2022-09-20T07:42:39.993Z,7.80
2022-09-20T07:43:39.991Z,9.40
2022-09-20T07:44:39.963Z,13.90
2022-09-20T07:45:39.973Z,11.50
2022-09-20T07:46:39.946Z,10.80
2022-09-20T07:47:39.942Z,12.40
2022-09-20T07:48:39.974Z,10.20
2022-09-20T07:49:39.954Z,10.10
2022-09-20T07:50:39.918Z,12.00
2022-09-20T07:51:39.916Z,10.60
2022-09-20T07:52:39.934Z,8.80
2022-09-20T07:53:39.914Z,10.70
2022-09-20T07:54:39.884Z,10.00
2022-09-20T07:55:39.891Z,14.50
2022-09-20T07:56:39.891Z,9.10
2022-09-20T07:57:39.871Z,8.90
2022-09-20T07:58:39.907Z,9.10
2022-09-20T07:59:39.850Z,9.40
2022-09-20T08:00:39.852Z,9.70
2022-09-20T08:01:39.952Z,12.10
2022-09-20T08:02:39.887Z,9.00
2022-09-20T08:04:06.299Z,9.20
2022-09-20T08:04:39.813Z,12.70
2022-09-20T08:05:39.827Z,10.40
2022-09-20T08:06:39.802Z,8.90
2022-09-20T08:07:39.858Z,7.90
2022-09-20T08:08:39.778Z,13.00
2022-09-20T08:09:39.788Z,9.90
2022-09-20T08:10:39.818Z,13.40
2022-09-20T08:11:39.815Z,7.30
2022-09-20T08:14:42.138Z,12.40
2022-09-20T08:15:39.778Z,11.80
2022-09-20T08:16:39.837Z,10.00
2022-09-20T08:17:39.739Z,10.70
2022-09-20T08:18:39.722Z,10.10
2022-09-20T08:19:39.734Z,8.00
2022-09-20T08:20:39.714Z,12.40
2022-09-20T08:21:39.706Z,8.80
2022-09-20T08:22:39.703Z,9.00
2022-09-20T08:23:39.695Z,10.00
2022-09-20T08:24:39.706Z,15.30
2022-09-20T08:25:39.723Z,10.50
2022-09-20T08:26:39.727Z,10.50
2022-09-20T08:27:39.658Z,8.60
2022-09-20T08:28:39.662Z,16.00
2022-09-20T08:29:39.686Z,8.50
2022-09-20T08:30:39.642Z,11.30
2022-09-20T08:31:39.769Z,9.70
2022-09-20T08:32:39.629Z,7.90
2022-09-20T08:33:39.619Z,11.80
2022-09-20T08:34:39.677Z,10.60
2022-09-20T08:35:39.610Z,8.60
2022-09-20T08:36:39.670Z,8.70
2022-09-20T08:37:40.250Z,13.20
2022-09-20T08:39:59.026Z,9.90
2022-09-20T08:40:41.776Z,9.40
2022-09-20T08:41:39.666Z,11.70
2022-09-20T08:42:44.418Z,13.50
2022-09-20T08:43:45.677Z,11.10
2022-09-20T08:44:45.280Z,8.80
2022-09-20T08:45:40.787Z,8.40
2022-09-20T08:46:39.551Z,12.00
2022-09-20T08:47:39.620Z,10.10
2022-09-20T08:48:39.795Z,12.30
2022-09-20T08:49:40.518Z,13.10
2022-09-20T08:50:40.443Z,10.70
2022-09-20T08:51:40.559Z,11.60
2022-09-20T08:52:40.969Z,10.20
2022-09-20T08:53:39.502Z,10.70
2022-09-20T08:54:39.518Z,10.60
2022-09-20T08:55:39.524Z,14.50
2022-09-20T08:56:39.620Z,10.10
2022-09-20T08:57:39.483Z,10.90
2022-09-20T08:58:39.494Z,12.10
2022-09-20T08:59:39.455Z,9.60
2022-09-20T09:00:39.467Z,10.80
2022-09-20T09:01:39.438Z,11.10
2022-09-20T09:02:39.520Z,11.80
2022-09-20T09:03:39.438Z,8.40
2022-09-20T09:04:39.463Z,11.10
2022-09-20T09:05:39.419Z,10.70
2022-09-20T09:06:39.427Z,11.40
2022-09-20T09:07:39.413Z,11.20
2022-09-20T09:08:39.424Z,10.60
2022-09-20T09:09:39.427Z,11.00
2022-09-20T09:10:42.832Z,7.50
2022-09-20T09:11:45.844Z,8.50
2022-09-20T09:12:40.387Z,10.70
2022-09-20T09:13:39.374Z,10.90
2022-09-20T09:14:39.357Z,11.80
2022-09-20T09:15:39.359Z,11.20
2022-09-20T09:16:39.397Z,10.60
2022-09-20T09:17:39.338Z,10.00
2022-09-20T09:18:39.372Z,6.80
2022-09-20T09:19:39.322Z,10.40
2022-09-20T09:20:39.310Z,9.40
2022-09-20T09:21:39.399Z,7.40
2022-09-20T09:22:39.303Z,10.10
2022-09-20T09:23:39.791Z,7.20
2022-09-20T09:24:39.322Z,6.90
2022-09-20T09:25:39.302Z,9.30
2022-09-20T09:26:39.912Z,7.50
2022-09-20T09:27:39.267Z,10.80
2022-09-20T09:28:39.266Z,6.30
2022-09-20T09:29:39.266Z,9.80
2022-09-20T09:30:39.265Z,9.50
2022-09-20T09:31:39.257Z,10.60
2022-09-20T09:32:39.239Z,8.50
2022-09-20T09:33:39.234Z,10.60
2022-09-20T09:34:39.246Z,9.30
2022-09-20T09:35:39.219Z,7.60
2022-09-20T09:36:39.218Z,7.40
2022-09-20T09:37:39.222Z,8.20
2022-09-20T09:38:39.206Z,7.60
2022-09-20T09:39:39.198Z,11.80
2022-09-20T09:40:39.238Z,9.80
2022-09-20T09:41:39.182Z,9.20
2022-09-20T09:42:39.170Z,12.40
2022-09-20T09:43:39.170Z,9.30
2022-09-20T09:44:39.229Z,9.10
2022-09-20T09:45:39.344Z,9.20
2022-09-20T09:46:39.138Z,10.40
2022-09-20T09:47:39.142Z,7.60
2022-09-20T09:48:40.222Z,8.50
2022-09-20T09:49:40.169Z,11.40
2022-09-20T09:50:39.168Z,11.70
2022-09-20T09:51:39.144Z,8.60
2022-09-20T09:52:39.115Z,14.10
2022-09-20T09:53:39.148Z,12.70
2022-09-20T09:54:39.108Z,13.00
2022-09-20T09:55:39.115Z,10.10
2022-09-20T09:56:39.105Z,13.60
2022-09-20T09:57:39.131Z,9.30
2022-09-20T09:58:39.080Z,9.00
2022-09-20T09:59:39.083Z,9.50
2022-09-20T10:00:39.083Z,6.60
2022-09-20T10:01:39.091Z,6.40
2022-09-20T10:02:39.115Z,7.40
2022-09-20T10:03:39.082Z,7.20
2022-09-20T10:04:39.041Z,7.00
2022-09-20T10:05:39.040Z,7.00
2022-09-20T10:06:39.055Z,6.90
2022-09-20T10:07:39.016Z,8.90
2022-09-20T10:08:39.026Z,7.80
2022-09-20T10:09:39.016Z,7.80
2022-09-20T10:10:39.026Z,7.50
2022-09-20T10:11:38.999Z,5.90
2022-09-20T10:12:38.970Z,7.00
2022-09-20T10:13:40.810Z,6.10
2022-09-20T10:14:40.000Z,6.90
2022-09-20T10:15:38.955Z,7.60
2022-09-20T10:16:39.026Z,7.40
2022-09-20T10:17:38.998Z,4.20
2022-09-20T10:18:38.922Z,3.50
2022-09-20T10:19:38.930Z,5.10
2022-09-20T10:20:38.955Z,6.30
2022-09-20T10:21:38.940Z,6.80
2022-09-20T10:22:38.940Z,5.60
2022-09-20T10:24:02.074Z,5.40
2022-09-20T10:24:40.903Z,6.80
2022-09-20T10:25:38.976Z,5.50
2022-09-20T10:26:38.904Z,5.90
2022-09-20T10:27:38.880Z,3.70
2022-09-20T10:28:38.940Z,3.70
2022-09-20T10:29:39.868Z,5.80
2022-09-20T10:30:38.918Z,5.90
2022-09-20T10:31:38.887Z,5.10
2022-09-20T10:32:39.855Z,3.60
2022-09-20T10:33:38.864Z,3.30
2022-09-20T10:34:38.861Z,4.30
2022-09-20T10:35:38.866Z,6.60
2022-09-20T10:36:38.901Z,4.60
2022-09-20T10:37:38.848Z,9.20
2022-09-20T10:38:38.928Z,5.60
2022-09-20T10:39:38.811Z,3.30
2022-09-20T10:40:38.901Z,6.40
2022-09-20T10:41:38.795Z,4.00
2022-09-20T10:42:38.785Z,4.30
2022-09-20T10:43:38.847Z,8.80
2022-09-20T10:44:38.768Z,4.40
2022-09-20T10:46:14.533Z,6.20
2022-09-20T10:46:40.867Z,5.70
2022-09-20T10:47:38.795Z,4.90
2022-09-20T10:48:38.748Z,5.70
2022-09-20T10:49:38.779Z,5.00
2022-09-20T10:50:38.739Z,6.20
2022-09-20T10:51:38.783Z,9.10
2022-09-20T10:52:38.836Z,8.30
2022-09-20T10:53:38.715Z,4.60
2022-09-20T10:54:38.711Z,8.00
2022-09-20T10:55:38.712Z,5.60
2022-09-20T10:56:38.752Z,5.90
2022-09-20T10:57:41.151Z,5.50
2022-09-20T10:58:38.685Z,4.80
2022-09-20T10:59:38.788Z,5.50
2022-09-20T11:00:40.041Z,6.50
2022-09-20T11:01:38.748Z,5.30
2022-09-20T11:02:38.734Z,4.10
2022-09-20T11:03:38.664Z,3.30
2022-09-20T11:04:38.676Z,4.40
2022-09-20T11:05:38.639Z,6.70
2022-09-20T11:06:38.653Z,6.90
2022-09-20T11:07:38.618Z,6.10
2022-09-20T11:08:38.828Z,6.50
2022-09-20T11:09:38.632Z,4.70
2022-09-20T11:10:38.629Z,8.10
2022-09-20T11:11:38.612Z,6.40
2022-09-20T11:12:38.581Z,4.40
2022-09-20T11:13:38.652Z,4.80
2022-09-20T11:14:38.593Z,6.40
2022-09-20T11:15:38.641Z,5.40
2022-09-20T11:16:38.656Z,4.80
2022-09-20T11:17:38.552Z,4.40
2022-09-20T11:18:38.549Z,5.80
2022-09-20T11:19:38.544Z,5.70
2022-09-20T11:20:38.551Z,5.30
2022-09-20T11:21:38.536Z,3.50
2022-09-20T11:22:38.520Z,4.10
2022-09-20T11:23:38.568Z,4.70
2022-09-20T11:24:38.518Z,5.60
2022-09-20T11:25:38.549Z,4.60
2022-09-20T11:26:38.505Z,2.00
2022-09-20T11:27:38.529Z,7.80
2022-09-20T11:28:38.484Z,3.60
2022-09-20T11:29:38.488Z,3.60
2022-09-20T11:30:38.493Z,3.10
2022-09-20T11:31:38.575Z,3.90
2022-09-20T11:32:38.504Z,5.90
2022-09-20T11:33:41.455Z,5.10
2022-09-20T11:34:39.452Z,2.90
2022-09-20T11:35:38.643Z,3.80
2022-09-20T11:36:39.368Z,5.50
2022-09-20T11:37:38.424Z,4.10
2022-09-20T11:38:38.444Z,5.40
2022-09-20T11:39:38.404Z,4.00
2022-09-20T11:40:38.485Z,2.90
2022-09-20T11:41:38.539Z,4.60
2022-09-20T11:42:38.392Z,4.90
2022-09-20T11:43:38.382Z,4.10
2022-09-20T11:44:38.448Z,2.70
2022-09-20T11:45:38.397Z,5.10
2022-09-20T11:46:38.351Z,4.30
2022-09-20T11:47:53.850Z,6.60
2022-09-20T11:48:40.352Z,5.90
2022-09-20T11:49:38.348Z,4.20
2022-09-20T11:50:38.444Z,2.60
2022-09-20T11:51:38.468Z,5.20
2022-09-20T11:52:38.340Z,6.10
2022-09-20T11:53:38.347Z,6.40
2022-09-20T11:54:38.351Z,5.10
2022-09-20T11:55:38.335Z,4.20
2022-09-20T11:56:38.356Z,5.60
2022-09-20T11:57:38.293Z,4.70
2022-09-20T11:58:38.332Z,4.70
2022-09-20T11:59:38.276Z,5.10
2022-09-20T12:00:38.296Z,5.10
2022-09-20T12:01:38.320Z,6.20
2022-09-20T12:02:38.419Z,4.10
2022-09-20T12:03:38.321Z,4.30
2022-09-20T12:04:38.625Z,5.90
2022-09-20T12:05:38.322Z,5.70
2022-09-20T12:06:38.248Z,4.30
2022-09-20T12:07:38.696Z,4.80
2022-09-20T12:08:38.223Z,3.60
2022-09-20T12:09:38.215Z,5.50
2022-09-20T12:10:38.272Z,6.60
2022-09-20T12:11:38.213Z,4.20
2022-09-20T12:12:38.216Z,5.40
2022-09-20T12:13:38.229Z,5.70
2022-09-20T12:14:38.805Z,4.20
2022-09-20T12:15:38.199Z,6.00
2022-09-20T12:16:38.271Z,5.40
2022-09-20T12:17:38.159Z,4.60
2022-09-20T12:18:38.235Z,5.80
2022-09-20T12:19:38.161Z,5.00
2022-09-20T12:20:38.178Z,5.10
2022-09-20T12:21:38.164Z,6.40
2022-09-20T12:22:38.138Z,4.70
2022-09-20T12:23:38.146Z,5.60
2022-09-20T12:24:41.980Z,3.60
2022-09-20T12:25:39.155Z,2.60
2022-09-20T12:26:38.184Z,4.20
2022-09-20T12:27:38.115Z,3.90
2022-09-20T12:28:38.097Z,4.10
2022-09-20T12:29:38.355Z,5.00
2022-09-20T12:30:38.090Z,3.60
2022-09-20T12:31:38.132Z,4.90
2022-09-20T12:32:38.064Z,3.90
2022-09-20T12:33:38.070Z,4.20
2022-09-20T12:34:38.054Z,3.70
2022-09-20T12:35:38.051Z,4.00
2022-09-20T12:36:38.058Z,5.60
2022-09-20T12:37:38.098Z,6.30
2022-09-20T12:38:38.025Z,3.90
2022-09-20T12:39:38.027Z,2.40
2022-09-20T12:40:38.131Z,2.10
2022-09-20T12:41:38.059Z,3.70
2022-09-20T12:42:38.035Z,3.80
2022-09-20T12:43:38.018Z,5.00
2022-09-20T12:44:37.987Z,3.40
2022-09-20T12:45:38.002Z,4.00
2022-09-20T12:46:38.137Z,2.10
2022-09-20T12:47:37.983Z,3.30
2022-09-20T12:48:37.956Z,3.60
2022-09-20T12:49:37.995Z,4.20
2022-09-20T12:50:37.952Z,4.00
2022-09-20T12:51:37.975Z,4.00
2022-09-20T12:52:37.951Z,5.50
2022-09-20T12:53:37.947Z,3.80
2022-09-20T12:54:37.929Z,5.60
2022-09-20T12:55:37.914Z,4.00
2022-09-20T12:56:37.919Z,4.00
2022-09-20T12:57:37.905Z,3.30
2022-09-20T12:58:37.904Z,5.00
2022-09-20T12:59:37.910Z,4.40
2022-09-20T13:00:37.958Z,5.40
2022-09-20T13:01:37.934Z,2.90
2022-09-20T13:02:37.947Z,3.00
2022-09-20T13:03:37.910Z,2.70
2022-09-20T13:04:37.971Z,4.20
2022-09-20T13:05:39.759Z,4.40
2022-09-20T13:06:37.847Z,4.50
2022-09-20T13:07:42.621Z,3.80